Terminal Aerodrome Forecast
Issued by NWS Tuscon, AZ

Home | Current Version | Previous Version | Text Only | Print | Product List | Glossary On
Versions: 1 2 3 4 5 6 7 8 9 10 11 12 13 14 15 16 17 18 19
000
FTUS45 KTWC 260539 AAA
TAFDUG
TAF AMD
KDUG 260539Z 2606/2706 05008KT P6SM BKN150
      TEMPO 2606/2608 VRB15G30KT P6SM -TSRA OVC090CB
     FM260800 10005KT P6SM FEW120 SCT180
     FM261800 34008KT P6SM SCT080 BKN150
     FM262100 34012G18KT P6SM VCTS SCT080CB BKN120
     FM270200 36008KT P6SM BKN100=

USA.gov is the U.S. government's official web portal to all federal, state and local government web resources and services.